sensor_id;sensor_type;location;lat;lon;timestamp;P1;durP1;ratioP1;P2;durP2;ratioP2
5591;SDS011;2818;49.790;9.958;2022-10-17T00:00:34;8.93;;;6.73;;
5591;SDS011;2818;49.790;9.958;2022-10-17T00:03:01;13.70;;;6.07;;
5591;SDS011;2818;49.790;9.958;2022-10-17T00:05:28;9.60;;;6.50;;
5591;SDS011;2818;49.790;9.958;2022-10-17T00:07:55;9.70;;;6.37;;
5591;SDS011;2818;49.790;9.958;2022-10-17T00:10:22;9.33;;;5.97;;
5591;SDS011;2818;49.790;9.958;2022-10-17T00:12:49;10.90;;;5.93;;
5591;SDS011;2818;49.790;9.958;2022-10-17T00:15:17;11.93;;;5.80;;
5591;SDS011;2818;49.790;9.958;2022-10-17T00:17:46;10.20;;;5.90;;
5591;SDS011;2818;49.790;9.958;2022-10-17T00:20:13;11.40;;;6.47;;
5591;SDS011;2818;49.790;9.958;2022-10-17T00:22:40;6.60;;;5.77;;
5591;SDS011;2818;49.790;9.958;2022-10-17T00:25:07;16.17;;;6.30;;
5591;SDS011;2818;49.790;9.958;2022-10-17T00:27:35;6.67;;;5.93;;
5591;SDS011;2818;49.790;9.958;2022-10-17T00:30:04;7.57;;;6.77;;
5591;SDS011;2818;49.790;9.958;2022-10-17T00:32:32;16.70;;;6.57;;
5591;SDS011;2818;49.790;9.958;2022-10-17T00:34:59;16.70;;;7.30;;
5591;SDS011;2818;49.790;9.958;2022-10-17T00:37:26;19.50;;;6.50;;
5591;SDS011;2818;49.790;9.958;2022-10-17T00:39:54;10.30;;;6.67;;
5591;SDS011;2818;49.790;9.958;2022-10-17T00:42:21;49.87;;;25.77;;
5591;SDS011;2818;49.790;9.958;2022-10-17T00:44:58;9.50;;;6.97;;
5591;SDS011;2818;49.790;9.958;2022-10-17T00:47:28;7.10;;;6.50;;
5591;SDS011;2818;49.790;9.958;2022-10-17T00:49:56;13.53;;;6.00;;
5591;SDS011;2818;49.790;9.958;2022-10-17T00:52:24;8.90;;;6.00;;
5591;SDS011;2818;49.790;9.958;2022-10-17T00:54:57;13.20;;;6.50;;
5591;SDS011;2818;49.790;9.958;2022-10-17T00:57:29;6.57;;;5.80;;
5591;SDS011;2818;49.790;9.958;2022-10-17T00:59:57;9.70;;;6.13;;
5591;SDS011;2818;49.790;9.958;2022-10-17T01:02:28;12.20;;;5.90;;
5591;SDS011;2818;49.790;9.958;2022-10-17T01:04:55;6.20;;;5.70;;
5591;SDS011;2818;49.790;9.958;2022-10-17T01:07:25;9.83;;;7.03;;
5591;SDS011;2818;49.790;9.958;2022-10-17T01:10:00;10.80;;;6.20;;
5591;SDS011;2818;49.790;9.958;2022-10-17T01:15:28;10.77;;;6.27;;
5591;SDS011;2818;49.790;9.958;2022-10-17T01:32:30;7.20;;;6.60;;
5591;SDS011;2818;49.790;9.958;2022-10-17T01:35:36;7.30;;;6.30;;
5591;SDS011;2818;49.790;9.958;2022-10-17T01:40:55;6.17;;;5.53;;
5591;SDS011;2818;49.790;9.958;2022-10-17T01:46:10;10.67;;;6.40;;
5591;SDS011;2818;49.790;9.958;2022-10-17T01:48:44;7.00;;;6.30;;
5591;SDS011;2818;49.790;9.958;2022-10-17T01:51:15;7.53;;;6.10;;
5591;SDS011;2818;49.790;9.958;2022-10-17T01:57:05;6.33;;;5.83;;
5591;SDS011;2818;49.790;9.958;2022-10-17T01:59:38;7.27;;;6.37;;
5591;SDS011;2818;49.790;9.958;2022-10-17T02:02:08;9.50;;;6.63;;
5591;SDS011;2818;49.790;9.958;2022-10-17T02:04:36;41.93;;;7.20;;
5591;SDS011;2818;49.790;9.958;2022-10-17T02:07:07;31.17;;;7.00;;
5591;SDS011;2818;49.790;9.958;2022-10-17T02:09:36;12.00;;;7.53;;
5591;SDS011;2818;49.790;9.958;2022-10-17T02:21:07;33.83;;;6.60;;
5591;SDS011;2818;49.790;9.958;2022-10-17T02:24:06;135.80;;;8.90;;
5591;SDS011;2818;49.790;9.958;2022-10-17T02:26:50;28.90;;;7.47;;
5591;SDS011;2818;49.790;9.958;2022-10-17T02:29:25;8.30;;;6.87;;
5591;SDS011;2818;49.790;9.958;2022-10-17T02:32:01;13.83;;;7.03;;
5591;SDS011;2818;49.790;9.958;2022-10-17T02:34:36;6.97;;;6.37;;
5591;SDS011;2818;49.790;9.958;2022-10-17T02:37:16;24.37;;;6.30;;
5591;SDS011;2818;49.790;9.958;2022-10-17T02:39:47;6.10;;;5.60;;
5591;SDS011;2818;49.790;9.958;2022-10-17T02:42:15;5.03;;;4.73;;
5591;SDS011;2818;49.790;9.958;2022-10-17T02:44:43;4.77;;;4.47;;
5591;SDS011;2818;49.790;9.958;2022-10-17T02:49:45;6.63;;;4.67;;
5591;SDS011;2818;49.790;9.958;2022-10-17T02:52:20;5.43;;;4.93;;
5591;SDS011;2818;49.790;9.958;2022-10-17T02:55:15;5.97;;;4.90;;
5591;SDS011;2818;49.790;9.958;2022-10-17T03:00:15;16.93;;;4.87;;
5591;SDS011;2818;49.790;9.958;2022-10-17T03:02:50;26.53;;;5.10;;
5591;SDS011;2818;49.790;9.958;2022-10-17T03:05:20;5.63;;;5.20;;
5591;SDS011;2818;49.790;9.958;2022-10-17T03:07:48;5.20;;;4.53;;
5591;SDS011;2818;49.790;9.958;2022-10-17T03:10:15;5.13;;;4.73;;
5591;SDS011;2818;49.790;9.958;2022-10-17T03:12:43;5.40;;;4.90;;
5591;SDS011;2818;49.790;9.958;2022-10-17T03:15:10;4.90;;;4.43;;
5591;SDS011;2818;49.790;9.958;2022-10-17T03:17:37;4.50;;;4.30;;
5591;SDS011;2818;49.790;9.958;2022-10-17T03:20:05;8.73;;;4.70;;
5591;SDS011;2818;49.790;9.958;2022-10-17T03:22:32;11.83;;;4.43;;
5591;SDS011;2818;49.790;9.958;2022-10-17T03:24:59;7.43;;;4.67;;
5591;SDS011;2818;49.790;9.958;2022-10-17T03:27:26;5.27;;;4.40;;
5591;SDS011;2818;49.790;9.958;2022-10-17T03:29:54;22.87;;;4.43;;
5591;SDS011;2818;49.790;9.958;2022-10-17T03:32:20;4.60;;;4.20;;
5591;SDS011;2818;49.790;9.958;2022-10-17T03:34:47;23.43;;;4.60;;
5591;SDS011;2818;49.790;9.958;2022-10-17T03:37:14;4.10;;;4.00;;
5591;SDS011;2818;49.790;9.958;2022-10-17T03:39:41;5.90;;;4.40;;
5591;SDS011;2818;49.790;9.958;2022-10-17T03:42:08;27.70;;;5.00;;
5591;SDS011;2818;49.790;9.958;2022-10-17T03:44:35;9.60;;;4.97;;
5591;SDS011;2818;49.790;9.958;2022-10-17T03:47:01;5.43;;;4.90;;
5591;SDS011;2818;49.790;9.958;2022-10-17T03:49:28;8.77;;;5.07;;
5591;SDS011;2818;49.790;9.958;2022-10-17T03:51:55;4.80;;;4.50;;
5591;SDS011;2818;49.790;9.958;2022-10-17T03:54:22;4.93;;;4.50;;
5591;SDS011;2818;49.790;9.958;2022-10-17T03:56:49;22.30;;;16.47;;
5591;SDS011;2818;49.790;9.958;2022-10-17T03:59:16;11.70;;;7.30;;
5591;SDS011;2818;49.790;9.958;2022-10-17T04:01:43;4.40;;;4.10;;
5591;SDS011;2818;49.790;9.958;2022-10-17T04:04:10;4.63;;;4.43;;
5591;SDS011;2818;49.790;9.958;2022-10-17T04:06:37;7.80;;;5.10;;
5591;SDS011;2818;49.790;9.958;2022-10-17T04:09:05;6.87;;;4.27;;
5591;SDS011;2818;49.790;9.958;2022-10-17T04:11:32;4.40;;;4.07;;
5591;SDS011;2818;49.790;9.958;2022-10-17T04:13:59;4.07;;;3.87;;
5591;SDS011;2818;49.790;9.958;2022-10-17T04:16:26;4.13;;;3.73;;
5591;SDS011;2818;49.790;9.958;2022-10-17T04:18:54;4.70;;;4.40;;
5591;SDS011;2818;49.790;9.958;2022-10-17T04:21:22;7.07;;;4.50;;
5591;SDS011;2818;49.790;9.958;2022-10-17T04:23:54;4.20;;;3.90;;
5591;SDS011;2818;49.790;9.958;2022-10-17T04:26:21;4.10;;;3.73;;
5591;SDS011;2818;49.790;9.958;2022-10-17T04:28:49;3.77;;;3.67;;
5591;SDS011;2818;49.790;9.958;2022-10-17T04:31:16;8.17;;;3.80;;
5591;SDS011;2818;49.790;9.958;2022-10-17T04:33:47;4.40;;;4.10;;
5591;SDS011;2818;49.790;9.958;2022-10-17T04:36:16;4.03;;;3.73;;
5591;SDS011;2818;49.790;9.958;2022-10-17T04:38:44;4.43;;;4.10;;
5591;SDS011;2818;49.790;9.958;2022-10-17T04:41:13;4.30;;;3.97;;
5591;SDS011;2818;49.790;9.958;2022-10-17T04:43:41;5.47;;;3.80;;
5591;SDS011;2818;49.790;9.958;2022-10-17T04:46:15;3.63;;;3.53;;
5591;SDS011;2818;49.790;9.958;2022-10-17T04:48:42;3.37;;;3.27;;
5591;SDS011;2818;49.790;9.958;2022-10-17T04:51:12;5.57;;;5.17;;
5591;SDS011;2818;49.790;9.958;2022-10-17T04:53:41;4.80;;;4.60;;
5591;SDS011;2818;49.790;9.958;2022-10-17T04:56:16;6.17;;;4.40;;
5591;SDS011;2818;49.790;9.958;2022-10-17T04:58:44;4.83;;;4.60;;
5591;SDS011;2818;49.790;9.958;2022-10-17T05:01:13;4.17;;;3.97;;
5591;SDS011;2818;49.790;9.958;2022-10-17T05:03:46;5.03;;;3.97;;
5591;SDS011;2818;49.790;9.958;2022-10-17T05:06:14;4.30;;;4.10;;
5591;SDS011;2818;49.790;9.958;2022-10-17T05:08:43;4.63;;;4.00;;
5591;SDS011;2818;49.790;9.958;2022-10-17T05:11:20;7.90;;;4.73;;
5591;SDS011;2818;49.790;9.958;2022-10-17T05:13:50;4.80;;;4.50;;
5591;SDS011;2818;49.790;9.958;2022-10-17T05:16:22;4.63;;;4.33;;
5591;SDS011;2818;49.790;9.958;2022-10-17T05:18:50;6.33;;;4.07;;
5591;SDS011;2818;49.790;9.958;2022-10-17T05:21:18;4.83;;;4.30;;
5591;SDS011;2818;49.790;9.958;2022-10-17T05:23:47;4.57;;;4.20;;
5591;SDS011;2818;49.790;9.958;2022-10-17T05:26:13;5.60;;;4.70;;
5591;SDS011;2818;49.790;9.958;2022-10-17T05:28:40;7.10;;;4.33;;
5591;SDS011;2818;49.790;9.958;2022-10-17T05:31:08;10.00;;;4.83;;
5591;SDS011;2818;49.790;9.958;2022-10-17T05:33:36;5.17;;;4.70;;
5591;SDS011;2818;49.790;9.958;2022-10-17T05:36:04;9.00;;;5.13;;
5591;SDS011;2818;49.790;9.958;2022-10-17T05:38:32;9.47;;;6.10;;
5591;SDS011;2818;49.790;9.958;2022-10-17T05:41:00;6.87;;;6.10;;
5591;SDS011;2818;49.790;9.958;2022-10-17T05:43:28;5.93;;;5.57;;
5591;SDS011;2818;49.790;9.958;2022-10-17T05:45:55;8.03;;;6.20;;
5591;SDS011;2818;49.790;9.958;2022-10-17T05:48:22;8.67;;;7.97;;
5591;SDS011;2818;49.790;9.958;2022-10-17T05:50:55;13.30;;;7.33;;
5591;SDS011;2818;49.790;9.958;2022-10-17T05:53:24;8.20;;;7.10;;
5591;SDS011;2818;49.790;9.958;2022-10-17T05:55:54;7.07;;;6.37;;
5591;SDS011;2818;49.790;9.958;2022-10-17T05:58:25;6.87;;;6.27;;
5591;SDS011;2818;49.790;9.958;2022-10-17T06:01:13;7.53;;;6.93;;
5591;SDS011;2818;49.790;9.958;2022-10-17T06:03:40;7.70;;;7.00;;
5591;SDS011;2818;49.790;9.958;2022-10-17T06:06:09;7.07;;;6.47;;
5591;SDS011;2818;49.790;9.958;2022-10-17T06:08:37;9.90;;;7.20;;
5591;SDS011;2818;49.790;9.958;2022-10-17T06:11:05;10.50;;;7.00;;
5591;SDS011;2818;49.790;9.958;2022-10-17T06:13:35;6.73;;;6.03;;
5591;SDS011;2818;49.790;9.958;2022-10-17T06:16:03;6.20;;;5.30;;
5591;SDS011;2818;49.790;9.958;2022-10-17T06:18:30;8.00;;;5.80;;
5591;SDS011;2818;49.790;9.958;2022-10-17T06:21:01;6.50;;;5.50;;
5591;SDS011;2818;49.790;9.958;2022-10-17T06:23:33;5.77;;;5.20;;
5591;SDS011;2818;49.790;9.958;2022-10-17T06:26:01;5.57;;;5.10;;
5591;SDS011;2818;49.790;9.958;2022-10-17T06:28:29;5.43;;;4.93;;
5591;SDS011;2818;49.790;9.958;2022-10-17T06:30:56;6.23;;;5.03;;
5591;SDS011;2818;49.790;9.958;2022-10-17T06:33:23;5.70;;;5.30;;
5591;SDS011;2818;49.790;9.958;2022-10-17T06:35:54;8.93;;;5.50;;
5591;SDS011;2818;49.790;9.958;2022-10-17T06:38:21;5.80;;;5.20;;
5591;SDS011;2818;49.790;9.958;2022-10-17T06:40:48;5.00;;;4.60;;
5591;SDS011;2818;49.790;9.958;2022-10-17T06:43:15;9.40;;;4.93;;
5591;SDS011;2818;49.790;9.958;2022-10-17T06:45:44;5.67;;;5.27;;
5591;SDS011;2818;49.790;9.958;2022-10-17T06:48:12;15.43;;;5.47;;
5591;SDS011;2818;49.790;9.958;2022-10-17T06:50:40;10.57;;;5.80;;
5591;SDS011;2818;49.790;9.958;2022-10-17T06:53:06;8.73;;;5.83;;
5591;SDS011;2818;49.790;9.958;2022-10-17T06:55:33;13.03;;;5.87;;
5591;SDS011;2818;49.790;9.958;2022-10-17T06:58:00;10.50;;;5.83;;
5591;SDS011;2818;49.790;9.958;2022-10-17T07:00:27;9.60;;;5.50;;
5591;SDS011;2818;49.790;9.958;2022-10-17T07:02:54;12.03;;;6.53;;
5591;SDS011;2818;49.790;9.958;2022-10-17T07:05:20;8.73;;;6.10;;
5591;SDS011;2818;49.790;9.958;2022-10-17T07:07:48;8.33;;;6.50;;
5591;SDS011;2818;49.790;9.958;2022-10-17T07:10:17;6.23;;;5.83;;
5591;SDS011;2818;49.790;9.958;2022-10-17T07:12:44;7.70;;;6.40;;
5591;SDS011;2818;49.790;9.958;2022-10-17T07:15:11;9.77;;;6.90;;
5591;SDS011;2818;49.790;9.958;2022-10-17T07:17:38;8.30;;;6.37;;
5591;SDS011;2818;49.790;9.958;2022-10-17T07:20:05;9.80;;;6.37;;
5591;SDS011;2818;49.790;9.958;2022-10-17T07:22:32;7.47;;;6.77;;
5591;SDS011;2818;49.790;9.958;2022-10-17T07:24:59;6.80;;;6.33;;
5591;SDS011;2818;49.790;9.958;2022-10-17T07:27:26;7.10;;;6.43;;
5591;SDS011;2818;49.790;9.958;2022-10-17T07:29:53;9.70;;;6.53;;
5591;SDS011;2818;49.790;9.958;2022-10-17T07:32:20;7.20;;;6.70;;
5591;SDS011;2818;49.790;9.958;2022-10-17T07:34:47;7.37;;;6.77;;
5591;SDS011;2818;49.790;9.958;2022-10-17T07:37:13;8.10;;;7.40;;
5591;SDS011;2818;49.790;9.958;2022-10-17T07:39:40;7.93;;;7.17;;
5591;SDS011;2818;49.790;9.958;2022-10-17T07:42:07;14.17;;;8.77;;
5591;SDS011;2818;49.790;9.958;2022-10-17T07:44:35;8.60;;;7.80;;
5591;SDS011;2818;49.790;9.958;2022-10-17T07:47:02;7.93;;;6.90;;
5591;SDS011;2818;49.790;9.958;2022-10-17T07:49:29;8.03;;;7.13;;
5591;SDS011;2818;49.790;9.958;2022-10-17T07:51:56;13.03;;;7.97;;
5591;SDS011;2818;49.790;9.958;2022-10-17T07:54:23;13.70;;;8.13;;
5591;SDS011;2818;49.790;9.958;2022-10-17T07:56:50;8.60;;;7.70;;
5591;SDS011;2818;49.790;9.958;2022-10-17T07:59:17;7.80;;;7.00;;
5591;SDS011;2818;49.790;9.958;2022-10-17T08:01:44;12.27;;;7.00;;
5591;SDS011;2818;49.790;9.958;2022-10-17T08:04:11;8.33;;;7.47;;
5591;SDS011;2818;49.790;9.958;2022-10-17T08:06:38;11.93;;;8.20;;
5591;SDS011;2818;49.790;9.958;2022-10-17T08:09:05;8.73;;;7.93;;
5591;SDS011;2818;49.790;9.958;2022-10-17T08:11:31;8.80;;;7.80;;
5591;SDS011;2818;49.790;9.958;2022-10-17T08:13:58;20.70;;;8.30;;
5591;SDS011;2818;49.790;9.958;2022-10-17T08:16:25;9.13;;;8.23;;
5591;SDS011;2818;49.790;9.958;2022-10-17T08:18:52;9.30;;;8.30;;
5591;SDS011;2818;49.790;9.958;2022-10-17T08:21:19;12.10;;;7.53;;
5591;SDS011;2818;49.790;9.958;2022-10-17T08:23:46;10.07;;;7.50;;
5591;SDS011;2818;49.790;9.958;2022-10-17T08:26:13;11.13;;;8.47;;
5591;SDS011;2818;49.790;9.958;2022-10-17T08:28:42;8.90;;;7.73;;
5591;SDS011;2818;49.790;9.958;2022-10-17T08:31:10;15.70;;;7.33;;
5591;SDS011;2818;49.790;9.958;2022-10-17T08:33:40;7.47;;;6.60;;
5591;SDS011;2818;49.790;9.958;2022-10-17T08:36:11;13.00;;;6.60;;
5591;SDS011;2818;49.790;9.958;2022-10-17T08:38:40;5.93;;;5.37;;
5591;SDS011;2818;49.790;9.958;2022-10-17T08:46:17;6.80;;;5.50;;
5591;SDS011;2818;49.790;9.958;2022-10-17T08:48:45;6.27;;;5.13;;
5591;SDS011;2818;49.790;9.958;2022-10-17T08:51:16;8.20;;;5.20;;
5591;SDS011;2818;49.790;9.958;2022-10-17T08:53:56;9.13;;;5.20;;
5591;SDS011;2818;49.790;9.958;2022-10-17T08:56:43;5.23;;;4.53;;
5591;SDS011;2818;49.790;9.958;2022-10-17T08:59:25;5.70;;;4.70;;
5591;SDS011;2818;49.790;9.958;2022-10-17T09:07:35;5.20;;;4.30;;
5591;SDS011;2818;49.790;9.958;2022-10-17T09:10:22;3.87;;;3.67;;
5591;SDS011;2818;49.790;9.958;2022-10-17T09:15:44;5.80;;;3.40;;
5591;SDS011;2818;49.790;9.958;2022-10-17T09:18:27;3.93;;;3.07;;
5591;SDS011;2818;49.790;9.958;2022-10-17T09:23:55;3.37;;;3.17;;
5591;SDS011;2818;49.790;9.958;2022-10-17T09:26:35;4.63;;;2.90;;
5591;SDS011;2818;49.790;9.958;2022-10-17T09:29:13;2.70;;;2.60;;
5591;SDS011;2818;49.790;9.958;2022-10-17T09:31:44;3.23;;;2.20;;
5591;SDS011;2818;49.790;9.958;2022-10-17T09:34:16;4.87;;;2.60;;
5591;SDS011;2818;49.790;9.958;2022-10-17T09:36:43;6.30;;;2.63;;
5591;SDS011;2818;49.790;9.958;2022-10-17T09:39:15;4.67;;;2.60;;
5591;SDS011;2818;49.790;9.958;2022-10-17T09:41:54;4.40;;;2.57;;
5591;SDS011;2818;49.790;9.958;2022-10-17T09:49:50;2.23;;;1.50;;
5591;SDS011;2818;49.790;9.958;2022-10-17T09:52:21;2.20;;;2.10;;
5591;SDS011;2818;49.790;9.958;2022-10-17T09:57:29;2.43;;;1.90;;
5591;SDS011;2818;49.790;9.958;2022-10-17T10:00:24;3.87;;;1.93;;
5591;SDS011;2818;49.790;9.958;2022-10-17T10:05:42;2.30;;;2.10;;
5591;SDS011;2818;49.790;9.958;2022-10-17T10:08:34;3.90;;;1.80;;
5591;SDS011;2818;49.790;9.958;2022-10-17T10:11:06;2.73;;;1.70;;
5591;SDS011;2818;49.790;9.958;2022-10-17T10:13:39;1.97;;;1.87;;
5591;SDS011;2818;49.790;9.958;2022-10-17T10:16:14;2.07;;;1.97;;
5591;SDS011;2818;49.790;9.958;2022-10-17T10:18:57;7.20;;;2.00;;
5591;SDS011;2818;49.790;9.958;2022-10-17T10:21:25;4.63;;;1.70;;
5591;SDS011;2818;49.790;9.958;2022-10-17T10:26:38;3.23;;;1.70;;
5591;SDS011;2818;49.790;9.958;2022-10-17T10:29:17;2.50;;;2.07;;
5591;SDS011;2818;49.790;9.958;2022-10-17T10:31:45;1.93;;;1.83;;
5591;SDS011;2818;49.790;9.958;2022-10-17T10:34:20;2.40;;;1.80;;
5591;SDS011;2818;49.790;9.958;2022-10-17T10:36:54;4.03;;;2.40;;
5591;SDS011;2818;49.790;9.958;2022-10-17T10:39:29;3.03;;;2.67;;
5591;SDS011;2818;49.790;9.958;2022-10-17T10:42:27;4.30;;;2.73;;
5591;SDS011;2818;49.790;9.958;2022-10-17T10:45:17;3.07;;;2.50;;
5591;SDS011;2818;49.790;9.958;2022-10-17T10:50:59;2.20;;;2.10;;
5591;SDS011;2818;49.790;9.958;2022-10-17T11:01:30;4.60;;;2.33;;
5591;SDS011;2818;49.790;9.958;2022-10-17T11:06:35;4.60;;;1.70;;
5591;SDS011;2818;49.790;9.958;2022-10-17T11:09:10;2.22;;;2.13;;
5591;SDS011;2818;49.790;9.958;2022-10-17T11:12:08;2.25;;;1.58;;
5591;SDS011;2818;49.790;9.958;2022-10-17T11:22:48;2.95;;;2.85;;
5591;SDS011;2818;49.790;9.958;2022-10-17T11:27:47;1.67;;;1.42;;
5591;SDS011;2818;49.790;9.958;2022-10-17T11:30:14;2.78;;;2.30;;
5591;SDS011;2818;49.790;9.958;2022-10-17T11:32:45;1.85;;;1.85;;
5591;SDS011;2818;49.790;9.958;2022-10-17T11:35:31;3.25;;;1.80;;
5591;SDS011;2818;49.790;9.958;2022-10-17T11:40:46;3.28;;;1.67;;
5591;SDS011;2818;49.790;9.958;2022-10-17T11:43:25;2.58;;;1.55;;
5591;SDS011;2818;49.790;9.958;2022-10-17T11:45:58;1.98;;;1.50;;
5591;SDS011;2818;49.790;9.958;2022-10-17T11:48:40;1.95;;;1.85;;
5591;SDS011;2818;49.790;9.958;2022-10-17T11:51:12;1.73;;;1.63;;
5591;SDS011;2818;49.790;9.958;2022-10-17T12:02:36;3.75;;;1.90;;
5591;SDS011;2818;49.790;9.958;2022-10-17T12:08:33;1.77;;;1.60;;
5591;SDS011;2818;49.790;9.958;2022-10-17T12:11:52;2.80;;;1.53;;
5591;SDS011;2818;49.790;9.958;2022-10-17T12:14:33;4.93;;;1.60;;
5591;SDS011;2818;49.790;9.958;2022-10-17T12:17:40;3.20;;;1.53;;
5591;SDS011;2818;49.790;9.958;2022-10-17T12:22:47;1.93;;;1.87;;
5591;SDS011;2818;49.790;9.958;2022-10-17T12:30:51;2.13;;;1.90;;
5591;SDS011;2818;49.790;9.958;2022-10-17T12:33:23;2.43;;;1.47;;
5591;SDS011;2818;49.790;9.958;2022-10-17T12:38:44;4.80;;;1.50;;
5591;SDS011;2818;49.790;9.958;2022-10-17T12:41:15;8.93;;;1.80;;
5591;SDS011;2818;49.790;9.958;2022-10-17T12:47:26;5.40;;;1.73;;
5591;SDS011;2818;49.790;9.958;2022-10-17T12:58:25;2.40;;;1.70;;
5591;SDS011;2818;49.790;9.958;2022-10-17T13:00:41;4.10;;;1.70;;
5591;SDS011;2818;49.790;9.958;2022-10-17T13:03:23;2.00;;;1.63;;
5591;SDS011;2818;49.790;9.958;2022-10-17T13:05:54;1.37;;;1.27;;
5591;SDS011;2818;49.790;9.958;2022-10-17T13:08:26;5.73;;;1.73;;
5591;SDS011;2818;49.790;9.958;2022-10-17T13:10:55;1.57;;;1.57;;
5591;SDS011;2818;49.790;9.958;2022-10-17T13:13:35;4.00;;;1.90;;
5591;SDS011;2818;49.790;9.958;2022-10-17T13:16:29;5.20;;;1.80;;
5591;SDS011;2818;49.790;9.958;2022-10-17T13:19:17;2.07;;;1.63;;
5591;SDS011;2818;49.790;9.958;2022-10-17T13:21:49;3.87;;;1.50;;
5591;SDS011;2818;49.790;9.958;2022-10-17T13:24:33;2.07;;;1.73;;
5591;SDS011;2818;49.790;9.958;2022-10-17T13:27:02;3.83;;;1.53;;
5591;SDS011;2818;49.790;9.958;2022-10-17T13:29:31;5.60;;;1.70;;
5591;SDS011;2818;49.790;9.958;2022-10-17T13:31:59;2.50;;;1.30;;
5591;SDS011;2818;49.790;9.958;2022-10-17T13:34:29;1.73;;;1.63;;
5591;SDS011;2818;49.790;9.958;2022-10-17T13:36:58;1.77;;;1.70;;
5591;SDS011;2818;49.790;9.958;2022-10-17T13:39:38;1.73;;;1.63;;
5591;SDS011;2818;49.790;9.958;2022-10-17T13:42:30;3.60;;;1.67;;
5591;SDS011;2818;49.790;9.958;2022-10-17T13:45:03;1.90;;;1.60;;
5591;SDS011;2818;49.790;9.958;2022-10-17T13:47:41;2.63;;;1.50;;
5591;SDS011;2818;49.790;9.958;2022-10-17T13:50:12;1.83;;;1.50;;
5591;SDS011;2818;49.790;9.958;2022-10-17T13:56:03;1.47;;;1.43;;
5591;SDS011;2818;49.790;9.958;2022-10-17T13:58:53;1.40;;;1.40;;
5591;SDS011;2818;49.790;9.958;2022-10-17T14:01:26;2.80;;;1.57;;
5591;SDS011;2818;49.790;9.958;2022-10-17T14:03:54;1.57;;;1.47;;
5591;SDS011;2818;49.790;9.958;2022-10-17T14:06:35;1.73;;;1.60;;
5591;SDS011;2818;49.790;9.958;2022-10-17T14:09:26;2.40;;;1.70;;
5591;SDS011;2818;49.790;9.958;2022-10-17T14:11:56;6.90;;;1.50;;
5591;SDS011;2818;49.790;9.958;2022-10-17T14:14:28;3.03;;;1.33;;
5591;SDS011;2818;49.790;9.958;2022-10-17T14:17:22;1.30;;;1.30;;
5591;SDS011;2818;49.790;9.958;2022-10-17T14:19:55;2.17;;;1.40;;
5591;SDS011;2818;49.790;9.958;2022-10-17T14:22:43;2.23;;;1.63;;
5591;SDS011;2818;49.790;9.958;2022-10-17T14:25:37;6.30;;;1.70;;
5591;SDS011;2818;49.790;9.958;2022-10-17T14:30:40;2.00;;;1.60;;
5591;SDS011;2818;49.790;9.958;2022-10-17T14:33:23;5.03;;;1.93;;
5591;SDS011;2818;49.790;9.958;2022-10-17T14:35:54;2.77;;;2.00;;
5591;SDS011;2818;49.790;9.958;2022-10-17T14:38:23;1.93;;;1.70;;
5591;SDS011;2818;49.790;9.958;2022-10-17T14:40:51;3.00;;;1.87;;
5591;SDS011;2818;49.790;9.958;2022-10-17T14:43:41;1.83;;;1.73;;
5591;SDS011;2818;49.790;9.958;2022-10-17T14:46:14;3.07;;;1.73;;
5591;SDS011;2818;49.790;9.958;2022-10-17T14:48:42;1.80;;;1.70;;
5591;SDS011;2818;49.790;9.958;2022-10-17T14:51:12;1.97;;;1.70;;
5591;SDS011;2818;49.790;9.958;2022-10-17T14:54:00;3.40;;;1.93;;
5591;SDS011;2818;49.790;9.958;2022-10-17T14:56:35;6.53;;;1.70;;
5591;SDS011;2818;49.790;9.958;2022-10-17T14:59:04;1.87;;;1.77;;
5591;SDS011;2818;49.790;9.958;2022-10-17T15:01:37;4.70;;;1.73;;
5591;SDS011;2818;49.790;9.958;2022-10-17T15:04:03;3.97;;;2.03;;
5591;SDS011;2818;49.790;9.958;2022-10-17T15:06:32;2.67;;;2.17;;
5591;SDS011;2818;49.790;9.958;2022-10-17T15:08:59;5.03;;;1.90;;
5591;SDS011;2818;49.790;9.958;2022-10-17T15:11:27;4.47;;;2.30;;
5591;SDS011;2818;49.790;9.958;2022-10-17T15:13:54;2.33;;;2.20;;
5591;SDS011;2818;49.790;9.958;2022-10-17T15:16:22;2.50;;;1.90;;
5591;SDS011;2818;49.790;9.958;2022-10-17T15:18:51;2.43;;;1.80;;
5591;SDS011;2818;49.790;9.958;2022-10-17T15:21:19;4.70;;;2.23;;
5591;SDS011;2818;49.790;9.958;2022-10-17T15:24:05;3.00;;;2.20;;
5591;SDS011;2818;49.790;9.958;2022-10-17T15:26:33;2.27;;;1.80;;
5591;SDS011;2818;49.790;9.958;2022-10-17T15:29:00;2.70;;;1.83;;
5591;SDS011;2818;49.790;9.958;2022-10-17T15:31:28;2.83;;;2.00;;
5591;SDS011;2818;49.790;9.958;2022-10-17T15:33:56;3.60;;;1.80;;
5591;SDS011;2818;49.790;9.958;2022-10-17T15:36:27;4.37;;;2.00;;
5591;SDS011;2818;49.790;9.958;2022-10-17T15:38:56;1.93;;;1.80;;
5591;SDS011;2818;49.790;9.958;2022-10-17T15:41:26;3.80;;;2.10;;
5591;SDS011;2818;49.790;9.958;2022-10-17T15:43:54;2.13;;;2.03;;
5591;SDS011;2818;49.790;9.958;2022-10-17T15:46:22;2.37;;;1.97;;
5591;SDS011;2818;49.790;9.958;2022-10-17T15:48:54;2.70;;;1.87;;
5591;SDS011;2818;49.790;9.958;2022-10-17T15:51:22;2.90;;;2.00;;
5591;SDS011;2818;49.790;9.958;2022-10-17T15:53:49;3.83;;;2.17;;
5591;SDS011;2818;49.790;9.958;2022-10-17T15:56:23;3.03;;;2.07;;
5591;SDS011;2818;49.790;9.958;2022-10-17T15:58:53;2.10;;;2.00;;
5591;SDS011;2818;49.790;9.958;2022-10-17T16:01:21;2.10;;;2.00;;
5591;SDS011;2818;49.790;9.958;2022-10-17T16:03:51;3.17;;;2.27;;
5591;SDS011;2818;49.790;9.958;2022-10-17T16:06:18;11.67;;;2.00;;
5591;SDS011;2818;49.790;9.958;2022-10-17T16:08:46;3.17;;;2.10;;
5591;SDS011;2818;49.790;9.958;2022-10-17T16:11:15;5.23;;;2.10;;
5591;SDS011;2818;49.790;9.958;2022-10-17T16:13:47;2.80;;;2.17;;
5591;SDS011;2818;49.790;9.958;2022-10-17T16:16:17;5.43;;;2.50;;
5591;SDS011;2818;49.790;9.958;2022-10-17T16:18:44;2.80;;;2.40;;
5591;SDS011;2818;49.790;9.958;2022-10-17T16:21:11;2.90;;;2.10;;
5591;SDS011;2818;49.790;9.958;2022-10-17T16:23:40;5.13;;;2.40;;
5591;SDS011;2818;49.790;9.958;2022-10-17T16:26:07;8.53;;;2.40;;
5591;SDS011;2818;49.790;9.958;2022-10-17T16:28:35;4.17;;;2.43;;
5591;SDS011;2818;49.790;9.958;2022-10-17T16:31:01;10.80;;;3.20;;
5591;SDS011;2818;49.790;9.958;2022-10-17T16:33:28;3.77;;;2.50;;
5591;SDS011;2818;49.790;9.958;2022-10-17T16:35:56;11.20;;;2.80;;
5591;SDS011;2818;49.790;9.958;2022-10-17T16:38:23;3.80;;;2.70;;
5591;SDS011;2818;49.790;9.958;2022-10-17T16:40:50;4.57;;;2.93;;
5591;SDS011;2818;49.790;9.958;2022-10-17T16:43:17;5.43;;;3.53;;
5591;SDS011;2818;49.790;9.958;2022-10-17T16:45:44;4.40;;;2.97;;
5591;SDS011;2818;49.790;9.958;2022-10-17T16:48:10;5.00;;;4.60;;
5591;SDS011;2818;49.790;9.958;2022-10-17T16:50:38;18.47;;;4.83;;
5591;SDS011;2818;49.790;9.958;2022-10-17T16:53:05;4.57;;;4.20;;
5591;SDS011;2818;49.790;9.958;2022-10-17T16:55:32;5.83;;;3.67;;
5591;SDS011;2818;49.790;9.958;2022-10-17T16:57:59;9.20;;;4.63;;
5591;SDS011;2818;49.790;9.958;2022-10-17T17:00:26;7.73;;;4.83;;
5591;SDS011;2818;49.790;9.958;2022-10-17T17:06:02;4.63;;;3.40;;
5591;SDS011;2818;49.790;9.958;2022-10-17T17:08:30;7.53;;;3.47;;
5591;SDS011;2818;49.790;9.958;2022-10-17T17:10:58;4.53;;;2.70;;
5591;SDS011;2818;49.790;9.958;2022-10-17T17:13:26;4.57;;;3.63;;
5591;SDS011;2818;49.790;9.958;2022-10-17T17:16:00;7.83;;;4.03;;
5591;SDS011;2818;49.790;9.958;2022-10-17T17:18:31;5.43;;;3.10;;
5591;SDS011;2818;49.790;9.958;2022-10-17T17:20:59;3.90;;;3.27;;
5591;SDS011;2818;49.790;9.958;2022-10-17T17:23:27;7.73;;;3.27;;
5591;SDS011;2818;49.790;9.958;2022-10-17T17:25:59;5.50;;;3.87;;
5591;SDS011;2818;49.790;9.958;2022-10-17T17:28:27;3.83;;;3.53;;
5591;SDS011;2818;49.790;9.958;2022-10-17T17:30:54;4.90;;;4.47;;
5591;SDS011;2818;49.790;9.958;2022-10-17T17:33:22;7.83;;;6.60;;
5591;SDS011;2818;49.790;9.958;2022-10-17T17:35:53;10.20;;;6.83;;
5591;SDS011;2818;49.790;9.958;2022-10-17T17:38:21;8.87;;;6.20;;
5591;SDS011;2818;49.790;9.958;2022-10-17T17:40:49;8.00;;;5.83;;
5591;SDS011;2818;49.790;9.958;2022-10-17T17:43:16;20.80;;;5.53;;
5591;SDS011;2818;49.790;9.958;2022-10-17T17:45:44;10.20;;;5.67;;
5591;SDS011;2818;49.790;9.958;2022-10-17T17:48:11;7.00;;;5.30;;
5591;SDS011;2818;49.790;9.958;2022-10-17T17:50:39;5.97;;;5.47;;
5591;SDS011;2818;49.790;9.958;2022-10-17T17:53:14;7.20;;;5.13;;
5591;SDS011;2818;49.790;9.958;2022-10-17T17:55:42;19.70;;;8.97;;
5591;SDS011;2818;49.790;9.958;2022-10-17T17:58:09;13.07;;;10.17;;